Baltimore, Maryland
Traffic Map
Current Weather Conditions
Baltimore, Maryland
Few Clouds
Few Clouds
31°
Feels Like: 22°
Wind Chill: 22° Ceiling: Unl
Heat Index: 31° Visibility: 10mi
Dew Point: 14° Wind: 12mph
Humidity: 50% Direction: 330° (NNW)
Pressure: 30.23in Gusts: 17mph
Raw Report DataKBWI 160954Z 33010G15KT 10SM FEW045 M01/M10 A3023 RMK AO2 SLP238 T10061100
Traffic Incident Summary
Active as of:
Severity:
Category:
InformationThere was an issue retrieving the traffic information for this location. Please try a different location or try again shortly.
Advertisements
At Last! Intellicast now available for iPhone and Android